createdAt,value
2023-05-02T00:00:50.929Z,16.10
2023-05-02T00:03:17.669Z,18.30
2023-05-02T00:05:44.940Z,18.85
2023-05-02T00:08:11.907Z,18.67
2023-05-02T00:10:38.654Z,18.50
2023-05-02T00:13:05.300Z,18.45
2023-05-02T00:15:31.733Z,18.55
2023-05-02T00:17:58.441Z,18.20
2023-05-02T00:20:24.949Z,20.27
2023-05-02T00:22:51.711Z,17.98
2023-05-02T00:25:18.137Z,20.23
2023-05-02T00:27:46.950Z,21.95
2023-05-02T00:30:14.165Z,22.10
2023-05-02T00:32:40.746Z,21.80
2023-05-02T00:35:08.724Z,22.30
2023-05-02T00:37:35.854Z,22.45
2023-05-02T00:40:03.583Z,25.73
2023-05-02T00:42:34.455Z,26.88
2023-05-02T00:45:00.807Z,25.02
2023-05-02T00:47:27.364Z,25.17
2023-05-02T00:49:54.072Z,25.98
2023-05-02T00:52:20.788Z,25.58
2023-05-02T00:54:47.268Z,28.13
2023-05-02T00:57:14.041Z,25.75
2023-05-02T00:59:40.596Z,25.90
2023-05-02T01:02:23.305Z,27.75
2023-05-02T01:05:11.748Z,25.42
2023-05-02T01:07:47.074Z,26.40
2023-05-02T01:10:30.516Z,26.77
2023-05-02T01:13:03.423Z,27.50
2023-05-02T01:15:32.579Z,26.17
2023-05-02T01:18:01.828Z,27.15
2023-05-02T01:20:31.129Z,28.02
2023-05-02T01:23:04.686Z,28.52
2023-05-02T01:25:55.056Z,28.50
2023-05-02T01:28:57.309Z,28.83
2023-05-02T01:31:27.047Z,27.15
2023-05-02T01:33:55.811Z,26.90
2023-05-02T01:36:26.741Z,27.20
2023-05-02T01:38:55.634Z,28.88
2023-05-02T01:41:26.194Z,28.13
2023-05-02T01:43:56.642Z,30.67
2023-05-02T01:46:25.419Z,28.55
2023-05-02T01:48:53.478Z,29.27
2023-05-02T01:51:21.737Z,30.58
2023-05-02T01:53:50.264Z,29.70
2023-05-02T01:56:19.289Z,27.90
2023-05-02T01:58:47.997Z,28.63
2023-05-02T02:01:18.061Z,29.83
2023-05-02T02:03:46.727Z,30.77
2023-05-02T02:06:16.044Z,31.60
2023-05-02T02:08:42.863Z,31.88
2023-05-02T02:11:13.057Z,28.70
2023-05-02T02:13:49.033Z,29.35
2023-05-02T02:16:21.618Z,29.95
2023-05-02T02:18:48.166Z,31.77
2023-05-02T02:21:18.961Z,29.60
2023-05-02T02:23:48.426Z,29.30
2023-05-02T02:26:17.356Z,32.78
2023-05-02T02:28:44.217Z,31.02
2023-05-02T02:31:10.770Z,31.15
2023-05-02T02:33:37.972Z,31.85
2023-05-02T02:36:15.092Z,31.60
2023-05-02T02:38:44.954Z,32.58
2023-05-02T02:41:27.665Z,30.35
2023-05-02T02:44:21.377Z,31.60
2023-05-02T02:46:57.608Z,30.15
2023-05-02T02:49:32.083Z,30.13
2023-05-02T02:52:03.747Z,30.48
2023-05-02T02:54:46.997Z,32.05
2023-05-02T02:57:24.748Z,33.90
2023-05-02T03:00:00.346Z,30.88
2023-05-02T03:02:31.316Z,32.05
2023-05-02T03:04:58.735Z,33.85
2023-05-02T03:07:27.668Z,32.53
2023-05-02T03:09:54.093Z,32.42
2023-05-02T03:12:21.051Z,33.60
2023-05-02T03:14:47.530Z,33.22
2023-05-02T03:17:13.885Z,34.33
2023-05-02T03:19:40.910Z,33.45
2023-05-02T03:22:07.271Z,33.03
2023-05-02T03:24:33.621Z,33.40
2023-05-02T03:27:00.060Z,36.17
2023-05-02T03:29:26.705Z,37.72
2023-05-02T03:31:53.294Z,37.22
2023-05-02T03:34:21.810Z,36.78
2023-05-02T03:36:48.238Z,36.47
2023-05-02T03:39:15.584Z,37.85
2023-05-02T03:41:43.649Z,39.20
2023-05-02T03:44:10.038Z,39.53
2023-05-02T03:46:36.700Z,39.40
2023-05-02T03:49:03.446Z,39.80
2023-05-02T03:51:30.034Z,39.35
2023-05-02T03:53:56.579Z,40.60
2023-05-02T03:56:23.098Z,38.40
2023-05-02T03:58:49.488Z,37.92
2023-05-02T04:01:17.036Z,38.13
2023-05-02T04:03:43.785Z,38.95
2023-05-02T04:06:10.775Z,37.28
2023-05-02T04:08:37.623Z,34.35
2023-05-02T04:11:04.340Z,34.65
2023-05-02T04:13:31.143Z,35.22
2023-05-02T04:15:57.526Z,34.03
2023-05-02T04:18:24.187Z,33.63
2023-05-02T04:20:50.677Z,34.00
2023-05-02T04:23:17.915Z,33.08
2023-05-02T04:25:54.968Z,33.22
2023-05-02T04:28:22.242Z,30.73
2023-05-02T04:30:52.252Z,33.70
2023-05-02T04:33:18.702Z,34.13
2023-05-02T04:35:45.949Z,31.17
2023-05-02T04:38:12.362Z,29.85
2023-05-02T04:40:38.978Z,31.92
2023-05-02T04:43:05.698Z,31.23
2023-05-02T04:45:32.564Z,31.08
2023-05-02T04:47:59.017Z,30.15
2023-05-02T04:50:25.922Z,28.00
2023-05-02T04:52:52.720Z,27.92
2023-05-02T04:55:19.420Z,28.05
2023-05-02T04:57:46.125Z,27.23
2023-05-02T05:00:13.010Z,27.10
2023-05-02T05:02:40.212Z,27.33
2023-05-02T05:05:06.947Z,25.98
2023-05-02T05:07:33.686Z,26.92
2023-05-02T05:10:00.918Z,28.50
2023-05-02T05:12:27.500Z,28.40
2023-05-02T05:14:54.053Z,27.35
2023-05-02T05:17:20.478Z,28.88
2023-05-02T05:19:47.178Z,26.25
2023-05-02T05:22:13.824Z,27.35
2023-05-02T05:24:40.735Z,28.63
2023-05-02T05:27:07.140Z,28.35
2023-05-02T05:29:33.553Z,28.30
2023-05-02T05:31:59.988Z,27.90
2023-05-02T05:34:27.071Z,28.05
2023-05-02T05:36:53.890Z,26.85
2023-05-02T05:39:20.294Z,28.67
2023-05-02T05:41:47.130Z,29.30
2023-05-02T05:44:14.045Z,27.30
2023-05-02T05:46:41.318Z,26.55
2023-05-02T05:49:07.861Z,26.17
2023-05-02T05:51:35.384Z,26.48
2023-05-02T05:54:02.104Z,28.60
2023-05-02T05:56:28.449Z,27.58
2023-05-02T05:58:54.977Z,28.00
2023-05-02T06:01:21.652Z,27.15
2023-05-02T06:03:48.436Z,28.05
2023-05-02T06:06:15.089Z,28.08
2023-05-02T06:08:41.583Z,26.88
2023-05-02T06:11:13.996Z,27.67
2023-05-02T06:13:40.490Z,26.50
2023-05-02T06:16:07.123Z,25.88
2023-05-02T06:18:33.577Z,26.08
2023-05-02T06:21:04.913Z,26.20
2023-05-02T06:23:32.986Z,25.55
2023-05-02T06:26:01.034Z,25.55
2023-05-02T06:28:28.178Z,26.40
2023-05-02T06:30:59.740Z,24.90
2023-05-02T06:33:26.781Z,27.02
2023-05-02T06:35:53.762Z,25.25
2023-05-02T06:38:20.769Z,25.85
2023-05-02T06:40:47.825Z,24.65
2023-05-02T06:43:14.800Z,25.55
2023-05-02T06:45:41.961Z,25.67
2023-05-02T06:48:08.625Z,23.60
2023-05-02T06:50:35.497Z,25.20
2023-05-02T06:53:02.213Z,25.70
2023-05-02T06:55:28.629Z,26.15
2023-05-02T06:57:55.708Z,25.35
2023-05-02T07:00:22.507Z,26.02
2023-05-02T07:02:49.659Z,26.10
2023-05-02T07:05:16.528Z,23.52
2023-05-02T07:07:43.626Z,26.10
2023-05-02T07:10:11.271Z,25.77
2023-05-02T07:12:39.308Z,25.00
2023-05-02T07:15:06.732Z,24.27
2023-05-02T07:17:33.321Z,23.42
2023-05-02T07:19:59.888Z,24.42
2023-05-02T07:22:26.677Z,23.25
2023-05-02T07:25:01.886Z,23.55
2023-05-02T07:29:55.044Z,21.88
2023-05-02T07:32:25.995Z,21.40
2023-05-02T07:34:57.361Z,22.42
2023-05-02T07:37:23.733Z,20.60
2023-05-02T07:39:50.237Z,21.15
2023-05-02T07:42:16.631Z,19.13
2023-05-02T07:44:43.277Z,18.38
2023-05-02T07:47:09.866Z,21.50
2023-05-02T07:49:36.836Z,20.48
2023-05-02T07:52:04.266Z,19.77
2023-05-02T07:54:30.672Z,22.05
2023-05-02T07:56:58.682Z,20.25
2023-05-02T07:59:25.144Z,20.23
2023-05-02T08:01:51.564Z,19.10
2023-05-02T08:04:18.108Z,17.55
2023-05-02T08:06:45.301Z,18.50
2023-05-02T08:09:12.125Z,18.65
2023-05-02T08:11:38.593Z,19.02
2023-05-02T08:14:04.968Z,17.98
2023-05-02T08:16:31.488Z,18.92
2023-05-02T08:18:58.251Z,18.52
2023-05-02T08:21:24.704Z,18.52
2023-05-02T08:23:51.444Z,16.23
2023-05-02T08:26:19.384Z,14.60
2023-05-02T08:28:46.269Z,12.45
2023-05-02T08:31:12.711Z,11.45
2023-05-02T08:33:39.145Z,11.18
2023-05-02T08:36:13.192Z,13.00
2023-05-02T08:38:40.064Z,11.50
2023-05-02T08:41:18.580Z,11.93
2023-05-02T08:43:46.155Z,12.05
2023-05-02T08:46:14.439Z,14.85
2023-05-02T08:48:43.289Z,13.32
2023-05-02T08:51:12.285Z,12.57
2023-05-02T08:53:40.043Z,13.30
2023-05-02T08:56:08.671Z,14.55
2023-05-02T08:58:39.367Z,13.32
2023-05-02T09:01:21.219Z,15.95
2023-05-02T09:03:48.891Z,16.17
2023-05-02T09:06:20.981Z,16.90
2023-05-02T09:08:49.418Z,15.00
2023-05-02T09:11:17.065Z,14.90
2023-05-02T09:13:51.637Z,15.30
2023-05-02T09:16:22.998Z,15.52
2023-05-02T09:18:51.712Z,14.45
2023-05-02T09:21:21.394Z,14.27
2023-05-02T09:23:52.813Z,13.90
2023-05-02T09:26:31.103Z,12.57
2023-05-02T09:28:59.921Z,10.68
2023-05-02T09:31:54.120Z,10.63
2023-05-02T09:34:20.750Z,9.07
2023-05-02T09:36:53.752Z,8.10
2023-05-02T09:39:26.061Z,7.97
2023-05-02T09:41:53.450Z,7.82
2023-05-02T09:44:25.061Z,8.80
2023-05-02T09:46:53.578Z,8.80
2023-05-02T09:49:39.882Z,9.93
2023-05-02T09:52:17.001Z,9.75
2023-05-02T09:54:43.596Z,8.48
2023-05-02T09:57:11.004Z,8.43
2023-05-02T09:59:39.450Z,8.68
2023-05-02T10:02:07.431Z,8.13
2023-05-02T10:04:34.646Z,8.68
2023-05-02T10:07:03.279Z,9.15
2023-05-02T10:09:32.540Z,8.30
2023-05-02T10:12:04.930Z,8.13
2023-05-02T10:14:31.766Z,7.88
2023-05-02T10:17:05.680Z,6.75
2023-05-02T10:19:53.023Z,6.70
2023-05-02T10:22:19.967Z,8.30
2023-05-02T10:24:49.270Z,7.88
2023-05-02T10:27:16.071Z,7.90
2023-05-02T10:29:42.815Z,7.22
2023-05-02T10:32:10.795Z,7.10
2023-05-02T10:34:40.711Z,6.95
2023-05-02T10:37:07.220Z,6.78
2023-05-02T10:39:34.004Z,7.15
2023-05-02T10:42:03.298Z,7.00
2023-05-02T10:44:33.756Z,7.80
2023-05-02T10:47:01.142Z,8.63
2023-05-02T10:49:30.037Z,8.13
2023-05-02T10:51:56.524Z,9.95
2023-05-02T10:54:24.656Z,11.60
2023-05-02T10:57:09.323Z,12.23
2023-05-02T10:59:42.838Z,11.80
2023-05-02T11:02:32.651Z,13.35
2023-05-02T11:05:06.677Z,13.38
2023-05-02T11:07:35.922Z,13.48
2023-05-02T11:10:17.343Z,14.63
2023-05-02T11:12:50.624Z,15.63
2023-05-02T11:15:28.099Z,14.68
2023-05-02T11:18:02.409Z,15.63
2023-05-02T11:20:39.919Z,15.85
2023-05-02T11:23:27.322Z,16.38
2023-05-02T11:25:56.078Z,12.82
2023-05-02T11:28:37.453Z,11.05
2023-05-02T11:31:05.819Z,9.55
2023-05-02T11:33:32.949Z,9.98
2023-05-02T11:35:59.946Z,8.77
2023-05-02T11:38:35.151Z,7.20
2023-05-02T11:43:31.887Z,5.60
2023-05-02T11:46:00.069Z,6.57
2023-05-02T11:48:27.455Z,5.95
2023-05-02T11:50:59.139Z,5.63
2023-05-02T11:53:29.692Z,6.05
2023-05-02T11:56:04.195Z,5.95
2023-05-02T11:58:33.889Z,6.10
2023-05-02T12:01:14.130Z,5.93
2023-05-02T12:03:41.484Z,6.07
2023-05-02T12:06:15.469Z,5.63
2023-05-02T12:08:45.292Z,5.35
2023-05-02T12:11:16.604Z,5.65
2023-05-02T12:13:50.255Z,6.75
2023-05-02T12:16:18.185Z,6.03
2023-05-02T12:18:46.239Z,6.13
2023-05-02T12:21:12.959Z,5.75
2023-05-02T12:23:40.650Z,5.90
2023-05-02T12:26:21.841Z,6.00
2023-05-02T12:28:54.270Z,5.55
2023-05-02T12:31:20.856Z,6.30
2023-05-02T12:33:48.713Z,5.90
2023-05-02T12:36:15.314Z,5.82
2023-05-02T12:38:49.405Z,6.15
2023-05-02T12:41:15.872Z,6.05
2023-05-02T12:43:49.784Z,5.75
2023-05-02T12:46:16.464Z,5.32
2023-05-02T12:48:44.844Z,5.78
2023-05-02T12:51:31.479Z,6.03
2023-05-02T12:53:57.870Z,5.72
2023-05-02T12:56:24.630Z,5.85
2023-05-02T12:58:51.535Z,5.40
2023-05-02T13:01:17.944Z,5.47
2023-05-02T13:03:44.753Z,6.43
2023-05-02T13:06:11.697Z,6.30
2023-05-02T13:08:38.290Z,5.90
2023-05-02T13:11:05.109Z,6.00
2023-05-02T13:13:32.581Z,6.20
2023-05-02T13:15:59.068Z,5.78
2023-05-02T13:18:25.780Z,6.30
2023-05-02T13:20:52.172Z,6.15
2023-05-02T13:23:18.656Z,6.50
2023-05-02T13:25:45.045Z,7.00
2023-05-02T13:28:11.502Z,7.32
2023-05-02T13:30:37.970Z,6.85
2023-05-02T13:33:04.589Z,6.95
2023-05-02T13:35:32.693Z,7.18
2023-05-02T13:38:00.440Z,6.55
2023-05-02T13:40:27.617Z,7.00
2023-05-02T13:42:54.057Z,6.85
2023-05-02T13:45:20.478Z,7.13
2023-05-02T13:47:46.953Z,6.80
2023-05-02T13:50:13.399Z,8.02
2023-05-02T13:52:39.891Z,7.20
2023-05-02T13:55:07.157Z,7.30
2023-05-02T13:57:33.578Z,6.55
2023-05-02T14:00:00.413Z,5.93
2023-05-02T14:02:27.183Z,6.22
2023-05-02T14:04:53.640Z,7.30
2023-05-02T14:07:20.031Z,7.78
2023-05-02T14:09:46.364Z,7.25
2023-05-02T14:12:12.790Z,7.30
2023-05-02T14:14:39.136Z,7.35
2023-05-02T14:17:06.531Z,7.30
2023-05-02T14:19:33.063Z,6.07
2023-05-02T14:21:59.541Z,6.03
2023-05-02T14:24:25.923Z,5.40
2023-05-02T14:26:52.680Z,5.57
2023-05-02T14:29:19.761Z,6.13
2023-05-02T14:31:46.516Z,5.53
2023-05-02T14:34:13.434Z,7.35
2023-05-02T14:36:39.820Z,7.38
2023-05-02T14:39:06.336Z,7.07
2023-05-02T14:41:32.740Z,7.50
2023-05-02T14:43:59.105Z,6.13
2023-05-02T14:46:26.160Z,6.65
2023-05-02T14:48:52.506Z,7.60
2023-05-02T14:51:18.963Z,6.53
2023-05-02T14:53:47.926Z,6.10
2023-05-02T14:56:16.327Z,6.20
2023-05-02T14:58:43.166Z,6.03
2023-05-02T15:01:18.956Z,6.00
2023-05-02T15:04:05.092Z,6.13
2023-05-02T15:06:33.418Z,6.63
2023-05-02T15:09:00.273Z,6.32
2023-05-02T15:11:26.717Z,6.57
2023-05-02T15:13:53.081Z,5.82
2023-05-02T15:16:19.728Z,6.38
2023-05-02T15:18:46.199Z,6.07
2023-05-02T15:21:12.846Z,6.50
2023-05-02T15:23:39.236Z,5.80
2023-05-02T15:26:06.392Z,6.78
2023-05-02T15:28:32.783Z,6.43
2023-05-02T15:30:59.241Z,7.10
2023-05-02T15:33:25.685Z,6.18
2023-05-02T15:35:58.176Z,6.63
2023-05-02T15:38:25.744Z,6.10
2023-05-02T15:40:55.600Z,6.20
2023-05-02T15:43:22.816Z,6.70
2023-05-02T15:45:52.357Z,6.57
2023-05-02T15:48:19.378Z,5.80
2023-05-02T15:50:47.053Z,6.38
2023-05-02T15:53:15.669Z,6.47
2023-05-02T15:55:46.232Z,7.03
2023-05-02T15:58:13.680Z,6.78
2023-05-02T16:00:40.313Z,7.15
2023-05-02T16:03:06.918Z,6.88
2023-05-02T16:05:34.059Z,6.93
2023-05-02T16:08:01.142Z,7.00
2023-05-02T16:10:27.860Z,7.18
2023-05-02T16:12:54.448Z,7.28
2023-05-02T16:15:21.224Z,6.78
2023-05-02T16:17:49.401Z,6.80
2023-05-02T16:20:17.049Z,7.70
2023-05-02T16:22:47.594Z,8.32
2023-05-02T16:25:16.023Z,7.22
2023-05-02T16:27:43.185Z,6.40
2023-05-02T16:30:10.120Z,7.00
2023-05-02T16:32:39.328Z,5.70
2023-05-02T16:35:08.405Z,5.93
2023-05-02T16:37:35.496Z,5.97
2023-05-02T16:40:05.420Z,6.00
2023-05-02T16:42:32.489Z,6.43
2023-05-02T16:44:58.927Z,6.32
2023-05-02T16:47:25.599Z,5.95
2023-05-02T16:49:59.387Z,7.53
2023-05-02T16:52:26.524Z,7.45
2023-05-02T16:54:53.629Z,8.80
2023-05-02T16:57:21.669Z,8.32
2023-05-02T16:59:49.506Z,7.15
2023-05-02T17:02:16.707Z,7.53
2023-05-02T17:04:43.822Z,7.57
2023-05-02T17:07:13.157Z,7.10
2023-05-02T17:09:41.323Z,6.88
2023-05-02T17:12:10.242Z,7.80
2023-05-02T17:14:37.986Z,7.10
2023-05-02T17:17:04.466Z,7.78
2023-05-02T17:19:31.362Z,7.53
2023-05-02T17:21:58.377Z,7.18
2023-05-02T17:24:25.354Z,6.82
2023-05-02T17:26:52.781Z,6.30
2023-05-02T17:29:19.324Z,6.32
2023-05-02T17:31:45.904Z,5.95
2023-05-02T17:34:12.690Z,6.28
2023-05-02T17:36:41.830Z,6.18
2023-05-02T17:39:09.441Z,6.18
2023-05-02T17:41:36.636Z,5.53
2023-05-02T17:44:04.693Z,5.03
2023-05-02T17:46:31.646Z,4.97
2023-05-02T17:48:58.420Z,5.28
2023-05-02T17:51:24.759Z,5.18
2023-05-02T17:53:51.799Z,4.70
2023-05-02T17:56:21.241Z,4.30
2023-05-02T17:58:47.938Z,4.78
2023-05-02T18:01:14.492Z,4.82
2023-05-02T18:03:41.972Z,4.47
2023-05-02T18:06:09.010Z,4.50
2023-05-02T18:08:36.099Z,4.07
2023-05-02T18:11:03.375Z,4.50
2023-05-02T18:13:30.620Z,4.57
2023-05-02T18:16:03.489Z,4.20
2023-05-02T18:18:30.084Z,4.30
2023-05-02T18:20:56.696Z,3.80
2023-05-02T18:23:23.271Z,4.90
2023-05-02T18:25:49.745Z,4.10
2023-05-02T18:28:16.113Z,4.25
2023-05-02T18:30:42.609Z,3.83
2023-05-02T18:33:09.119Z,4.15
2023-05-02T18:35:36.090Z,3.88
2023-05-02T18:38:06.507Z,3.67
2023-05-02T18:40:32.958Z,4.10
2023-05-02T18:42:59.759Z,4.00
2023-05-02T18:45:26.254Z,4.13
2023-05-02T18:47:53.413Z,4.15
2023-05-02T18:50:20.006Z,3.33
2023-05-02T18:52:46.610Z,4.07
2023-05-02T18:55:13.014Z,4.28
2023-05-02T18:57:39.450Z,4.20
2023-05-02T19:00:06.674Z,4.18
2023-05-02T19:02:33.513Z,4.75
2023-05-02T19:05:00.439Z,3.95
2023-05-02T19:07:27.639Z,3.83
2023-05-02T19:09:54.049Z,4.20
2023-05-02T19:12:20.462Z,3.63
2023-05-02T19:14:47.786Z,4.10
2023-05-02T19:17:14.216Z,3.10
2023-05-02T19:19:41.618Z,3.90
2023-05-02T19:22:08.334Z,3.95
2023-05-02T19:24:35.951Z,4.47
2023-05-02T19:27:06.864Z,3.95
2023-05-02T19:29:34.230Z,3.50
2023-05-02T19:32:01.122Z,3.47
2023-05-02T19:34:28.166Z,4.38
2023-05-02T19:36:55.455Z,3.80
2023-05-02T19:39:21.824Z,3.83
2023-05-02T19:41:49.802Z,4.00
2023-05-02T19:44:16.763Z,4.30
2023-05-02T19:46:43.268Z,4.10
2023-05-02T19:49:09.824Z,4.15
2023-05-02T19:51:36.201Z,4.00
2023-05-02T19:54:02.666Z,4.00
2023-05-02T19:56:29.866Z,4.03
2023-05-02T19:58:59.461Z,4.72
2023-05-02T20:01:31.020Z,4.30
2023-05-02T20:03:57.940Z,4.20
2023-05-02T20:06:24.529Z,4.20
2023-05-02T20:08:52.425Z,4.30
2023-05-02T20:11:19.528Z,4.18
2023-05-02T20:13:45.907Z,4.80
2023-05-02T20:16:14.252Z,4.45
2023-05-02T20:18:40.769Z,4.13
2023-05-02T20:21:07.242Z,4.60
2023-05-02T20:23:33.636Z,3.92
2023-05-02T20:26:00.335Z,4.38
2023-05-02T20:28:27.229Z,4.68
2023-05-02T20:30:53.593Z,4.53
2023-05-02T20:33:23.072Z,4.38
2023-05-02T20:35:54.993Z,4.60
2023-05-02T20:38:23.999Z,4.70
2023-05-02T20:40:50.692Z,4.35
2023-05-02T20:43:22.815Z,4.10
2023-05-02T20:45:49.596Z,4.50
2023-05-02T20:48:19.815Z,4.32
2023-05-02T20:50:54.655Z,4.88
2023-05-02T20:53:23.741Z,4.60
2023-05-02T20:55:50.793Z,4.75
2023-05-02T20:58:17.168Z,4.25
2023-05-02T21:00:43.559Z,4.78
2023-05-02T21:03:10.127Z,5.05
2023-05-02T21:05:36.806Z,4.30
2023-05-02T21:08:03.249Z,4.72
2023-05-02T21:10:30.433Z,5.35
2023-05-02T21:12:56.811Z,4.88
2023-05-02T21:15:23.196Z,5.32
2023-05-02T21:17:49.936Z,4.93
2023-05-02T21:20:16.324Z,5.72
2023-05-02T21:22:42.909Z,5.32
2023-05-02T21:25:09.720Z,5.55
2023-05-02T21:27:36.398Z,4.85
2023-05-02T21:30:03.056Z,5.05
2023-05-02T21:32:30.100Z,5.05
2023-05-02T21:34:56.543Z,5.55
2023-05-02T21:37:22.899Z,4.85
2023-05-02T21:39:49.468Z,4.60
2023-05-02T21:42:15.840Z,5.45
2023-05-02T21:44:43.352Z,4.90
2023-05-02T21:47:09.979Z,5.30
2023-05-02T21:49:36.780Z,5.25
2023-05-02T21:52:03.813Z,5.03
2023-05-02T21:54:30.227Z,4.57
2023-05-02T21:56:56.917Z,4.35
2023-05-02T21:59:23.277Z,5.10
2023-05-02T22:01:50.293Z,4.78
2023-05-02T22:04:17.917Z,4.63
2023-05-02T22:06:50.282Z,4.55
2023-05-02T22:09:17.336Z,4.45
2023-05-02T22:11:44.064Z,4.75
2023-05-02T22:14:11.578Z,5.30
2023-05-02T22:16:39.875Z,5.20
2023-05-02T22:19:07.381Z,5.30
2023-05-02T22:21:34.102Z,5.53
2023-05-02T22:24:00.692Z,5.30
2023-05-02T22:26:27.061Z,5.32
2023-05-02T22:28:53.510Z,4.75
2023-05-02T22:31:20.224Z,5.10
2023-05-02T22:33:49.729Z,5.50
2023-05-02T22:36:17.919Z,4.93
2023-05-02T22:38:44.373Z,5.40
2023-05-02T22:41:11.188Z,5.97
2023-05-02T22:43:37.546Z,5.18
2023-05-02T22:46:04.009Z,4.97
2023-05-02T22:48:30.781Z,4.55
2023-05-02T22:50:57.343Z,5.22
2023-05-02T22:53:23.773Z,4.40
2023-05-02T22:55:51.854Z,4.70
2023-05-02T22:58:18.657Z,4.97
2023-05-02T23:00:45.108Z,5.03
2023-05-02T23:03:11.899Z,5.20
2023-05-02T23:05:38.488Z,5.45
2023-05-02T23:08:04.995Z,5.18
2023-05-02T23:10:31.409Z,4.68
2023-05-02T23:12:57.881Z,4.95
2023-05-02T23:15:24.663Z,5.00
2023-05-02T23:17:51.045Z,5.30
2023-05-02T23:20:19.865Z,4.70
2023-05-02T23:22:46.853Z,4.93
2023-05-02T23:25:14.923Z,5.15
2023-05-02T23:27:41.759Z,5.53
2023-05-02T23:30:08.667Z,4.97
2023-05-02T23:32:35.352Z,5.55
2023-05-02T23:35:02.300Z,5.00
2023-05-02T23:37:29.391Z,5.15
2023-05-02T23:39:57.604Z,5.07
2023-05-02T23:42:24.070Z,5.05
2023-05-02T23:44:50.503Z,4.97
2023-05-02T23:47:16.948Z,5.47
2023-05-02T23:49:43.329Z,5.07
2023-05-02T23:52:09.719Z,4.82
2023-05-02T23:54:36.295Z,5.40
2023-05-02T23:57:03.175Z,5.28
2023-05-02T23:59:29.702Z,5.65
